Billings, MT

6:59 AM MDT on October 22, 2014 (GMT -0600)
Downtown Billings | Change Station
CLOSE
Current Station
Personal Weather Station
Location: Billings, MT
Elevation: 3127 ft
Nearby Weather Stations

Elev 3127 ft 45.78 °N, 108.50 °W | Updated 52 minutes ago

Clear
Clear
51.3 °F
Feels Like 51.3 °F
N
8.9
Wind Variable Wind from West
Gusts 17.4 mph

Today
High -- | Low -- °F
--% Chance of Precip.
Yesterday
High -- | Low -- °F
Precip. -- in
7:40 AM 6:15 PM
Waning Crescent, 2% visible
Pressure 29.97 in
Visibility 10.0 miles
Clouds Few 10000 ft
Dew Point 30 °F
Humidity 44%
Rainfall -999.00 in
Snow Depth Not available.
UV 0 out of 12
Pollen 2.60 out of 12
Air Quality Not available.
Flu Activity No Activity
METAR KBIL 221253Z 28018KT 10SM FEW100 08/M02 A2999 RMK AO2 PK WND 28026/1155 SLP148 T00831022

More Conditions Fewer Conditions

Pressure 29.97 in
Visibility 10.0 miles
Clouds Few 10000 ft
Dew Point 30 °F
Humidity 44%
Rainfall -999.00 in
Snow Depth Not available.
UV 0 out of 12
Pollen 2.60 out of 12
Air Quality Not available.
Flu Activity No Activity
METAR KBIL 221253Z 28018KT 10SM FEW100 08/M02 A2999 RMK AO2 PK WND 28026/1155 SLP148 T00831022

More Conditions Fewer Conditions

10-Day Weather Forecast

Almanac

Astronomy

Oct. 22, 2014 Rise Set
Actual Time 7:40 AM MDT 6:15 PM MDT
Civil Twilight 7:09 AM MDT 6:46 PM MDT
Nautical Twilight 6:35 AM MDT 7:20 PM MDT
Astronomical Twilight 6:00 AM MDT 7:55 PM MDT
Moon 6:20 AM MDT 5:46 PM MDT
Length of Visible Light 11h 36m
Length of Day
10h 35m
Tomorrow will be 3m 1s shorter.
Waning Crescent, 2% of the Moon is Illuminated
Today
Waning Crescent
Oct 23
New
Oct 30
First Quarter
Nov 6
Full
Nov 14
Last Quarter

Today's Extremes

State Highs State Lows

Community

WunderPhotos

Upload Photos

1,763,907 photos uploaded!

Nearby

Snow Depth

Station Depth Elevation
Burnt Mountain 0 in 5880 ft
Placer Basin 0 in 8830 ft
Crystal Lake 1 in 6050 ft
White Mill 0 in 8700 ft
Fisher Creek 2 in 9100 ft

Earthquake Activity

City Distance Mag. Time & Date
No recent earthquake activity has been reported nearby.
Minimum magnitude displayed is 2.5.

Coastal Water Temperatures

Place Temperature
No Stations Reporting

Nearby Weather Stations